Time;durP1;ratioP1;P1;durP2;ratioP2;P2;SDS_P1;SDS_P2;PMS_P1;PMS_P2;Temp;Humidity;BMP_temperature;BMP_pressure;BME280_temperature;BME280_humidity;BME280_pressure;Samples;Min_cycle;Max_cycle;Signal;HPM_P1;HPM_P2
2022/11/07 00:01:32;;;;;;;;;4.00;2.50;;;;;13.82;76.97;100793.25;4868260;29;45365;-75
2022/11/07 00:03:58;;;;;;;;;3.25;2.00;;;;;13.82;76.96;100803.97;4853251;29;45765;-75
2022/11/07 00:06:23;;;;;;;;;3.75;3.00;;;;;13.74;76.99;100784.66;4866194;29;45460;-75
2022/11/07 00:08:50;;;;;;;;;2.75;2.00;;;;;13.75;76.87;100798.03;4866553;29;45304;-74
2022/11/07 00:11:15;;;;;;;;;3.00;2.00;;;;;13.77;77.06;100797.94;4872801;29;45529;-75
2022/11/07 00:13:40;;;;;;;;;5.00;3.25;;;;;13.80;76.93;100805.84;4848255;29;45994;-75
2022/11/07 00:16:08;;;;;;;;;4.50;1.25;;;;;13.77;77.05;100798.81;4860361;29;45201;-75
2022/11/07 00:18:34;;;;;;;;;3.00;2.25;;;;;13.79;77.07;100806.78;4865502;29;45644;-74
2022/11/07 00:21:04;;;;;;;;;2.00;1.00;;;;;13.80;77.06;100814.78;4867095;29;45420;-74
2022/11/07 00:23:30;;;;;;;;;6.00;2.00;;;;;13.81;77.25;100812.97;4867895;29;45278;-75
2022/11/07 00:26:03;;;;;;;;;3.25;2.00;;;;;13.79;77.09;100807.66;4868034;29;45246;-74
2022/11/07 00:28:32;;;;;;;;;1.50;1.00;;;;;13.75;77.07;100805.16;4862798;29;45456;-74
2022/11/07 00:30:58;;;;;;;;;1.00;1.00;;;;;13.83;77.27;100820.00;4867408;29;46402;-74
2022/11/07 00:33:23;;;;;;;;;7.75;2.75;;;;;13.84;77.34;100810.13;4866617;29;45549;-75
2022/11/07 00:35:49;;;;;;;;;3.00;2.00;;;;;13.86;76.84;100817.16;4867221;29;45327;-80
2022/11/07 00:38:14;;;;;;;;;2.00;2.00;;;;;13.87;77.15;100824.28;4867759;29;45567;-80
2022/11/07 00:40:39;;;;;;;;;3.75;3.00;;;;;13.80;77.24;100813.88;4853161;29;48350;-80
2022/11/07 00:43:05;;;;;;;;;3.00;2.00;;;;;13.86;76.86;100821.66;4851971;29;45247;-80
2022/11/07 00:45:30;;;;;;;;;1.75;1.75;;;;;13.82;77.14;100815.56;4868411;29;45310;-74
2022/11/07 00:47:55;;;;;;;;;3.50;3.00;;;;;13.88;77.08;100820.69;4865614;29;45458;-75
2022/11/07 00:50:20;;;;;;;;;2.25;1.75;;;;;13.89;77.38;100822.41;4848300;29;47918;-74
2022/11/07 00:52:46;;;;;;;;;4.75;4.00;;;;;13.82;77.65;100807.53;4866076;29;45551;-75
2022/11/07 00:55:11;;;;;;;;;2.00;2.00;;;;;13.87;77.38;100810.88;4866364;29;45318;-75
2022/11/07 00:57:36;;;;;;;;;1.00;0.00;;;;;13.80;76.97;100795.09;4866731;29;45430;-75
2022/11/07 01:00:04;;;;;;;;;4.75;2.00;;;;;13.83;77.12;100806.59;4866065;29;45486;-75
2022/11/07 01:02:29;;;;;;;;;4.00;2.00;;;;;13.85;77.17;100804.72;4869647;29;45368;-75
2022/11/07 01:05:09;;;;;;;;;1.75;1.75;;;;;13.88;77.16;100812.63;4867544;29;45275;-75
2022/11/07 01:07:36;;;;;;;;;4.25;2.50;;;;;13.95;77.19;100815.00;4866073;29;45392;-74
2022/11/07 01:10:03;;;;;;;;;3.50;2.00;;;;;13.94;77.06;100807.91;4865221;29;45526;-75
2022/11/07 01:12:29;;;;;;;;;6.25;2.25;;;;;13.94;77.22;100816.81;4870919;29;45526;-74
2022/11/07 01:14:54;;;;;;;;;3.50;2.00;;;;;13.94;77.32;100814.16;4854601;29;45301;-74
2022/11/07 01:17:19;;;;;;;;;2.00;2.00;;;;;13.89;76.93;100814.34;4867103;29;45472;-75
2022/11/07 01:19:45;;;;;;;;;2.75;2.00;;;;;13.95;77.08;100826.63;4865120;29;45966;-73
2022/11/07 01:22:10;;;;;;;;;2.50;1.25;;;;;13.94;76.97;100824.88;4866847;29;45253;-75
2022/11/07 01:24:36;;;;;;;;;4.25;1.00;;;;;13.94;76.89;100827.56;4867038;29;45360;-74
2022/11/07 01:27:01;;;;;;;;;3.75;2.00;;;;;13.94;77.31;100822.19;4867064;29;45528;-74
2022/11/07 01:29:27;;;;;;;;;3.25;2.25;;;;;13.87;76.90;100807.31;4865700;29;46234;-74
2022/11/07 01:31:52;;;;;;;;;2.25;2.00;;;;;13.97;77.05;100822.06;4867035;29;45261;-74
2022/11/07 01:34:17;;;;;;;;;3.00;3.00;;;;;13.93;76.59;100819.56;4866024;29;52415;-74
2022/11/07 01:36:43;;;;;;;;;6.25;2.00;;;;;13.96;77.23;100820.31;4865663;29;45381;-74
2022/11/07 01:39:09;;;;;;;;;4.25;1.75;;;;;13.93;77.03;100823.13;4848465;29;47059;-74
2022/11/07 01:41:36;;;;;;;;;8.00;2.00;;;;;13.94;77.18;100837.44;4866069;29;45328;-75
2022/11/07 01:44:07;;;;;;;;;2.00;2.00;;;;;13.98;76.90;100841.72;4866749;29;45412;-75
2022/11/07 01:46:44;;;;;;;;;3.00;2.00;;;;;13.96;77.05;100847.16;4866905;29;45282;-74
2022/11/07 01:49:33;;;;;;;;;3.00;2.00;;;;;13.97;76.98;100846.22;4864776;29;46119;-74
2022/11/07 01:52:18;;;;;;;;;2.00;1.50;;;;;13.94;77.04;100845.50;4866735;29;45318;-74
2022/11/07 01:54:50;;;;;;;;;3.00;1.50;;;;;13.98;77.09;100847.06;4865774;29;45390;-74
2022/11/07 01:57:22;;;;;;;;;2.75;1.00;;;;;13.92;77.07;100834.81;4866268;29;45263;-75
2022/11/07 01:59:51;;;;;;;;;2.50;2.50;;;;;13.90;77.24;100837.56;4849074;29;45603;-74
2022/11/07 02:02:17;;;;;;;;;3.00;2.25;;;;;13.93;76.96;100841.91;4856599;29;45572;-75
2022/11/07 02:04:43;;;;;;;;;4.50;3.00;;;;;13.92;77.53;100831.28;4866277;29;45232;-74
2022/11/07 02:07:17;;;;;;;;;5.25;2.50;;;;;13.95;77.41;100839.16;4851991;29;45977;-74
2022/11/07 02:09:42;;;;;;;;;3.00;2.00;;;;;13.95;77.37;100840.06;4843451;29;47990;-74
2022/11/07 02:12:08;;;;;;;;;1.50;1.50;;;;;13.96;77.02;100835.53;4870504;29;45334;-74
2022/11/07 02:14:33;;;;;;;;;1.00;0.25;;;;;13.90;77.28;100824.16;4846700;29;45399;-74
2022/11/07 02:16:59;;;;;;;;;3.50;1.50;;;;;13.96;77.20;100830.19;4865445;29;45516;-74
2022/11/07 02:19:52;;;;;;;;;4.75;4.00;;;;;13.97;77.40;100840.84;4864425;29;45393;-74
2022/11/07 02:22:39;;;;;;;;;4.00;2.00;;;;;13.96;77.34;100843.59;4828221;29;45297;-74
2022/11/07 02:25:11;;;;;;;;;3.25;1.00;;;;;13.94;77.35;100843.66;4847543;29;45415;-75
2022/11/07 02:27:38;;;;;;;;;5.00;2.50;;;;;13.94;77.39;100834.75;4847257;29;45376;-75
2022/11/07 02:30:08;;;;;;;;;3.50;2.00;;;;;13.93;77.14;100833.84;4845656;29;47313;-74
2022/11/07 02:32:33;;;;;;;;;3.75;1.00;;;;;13.95;77.23;100837.38;4847045;29;45209;-74
2022/11/07 02:35:03;;;;;;;;;2.00;1.00;;;;;13.93;77.11;100835.69;4846736;29;45295;-74
2022/11/07 02:37:33;;;;;;;;;3.00;1.75;;;;;13.93;77.03;100827.63;4842789;29;45381;-74
2022/11/07 02:40:01;;;;;;;;;2.50;2.25;;;;;13.97;77.06;100838.16;4846564;29;46182;-74
2022/11/07 02:42:42;;;;;;;;;2.75;2.00;;;;;13.97;77.03;100843.53;4830776;29;45454;-74
2022/11/07 02:45:17;;;;;;;;;3.00;2.00;;;;;13.97;77.18;100848.91;4846502;29;45371;-75
2022/11/07 02:47:42;;;;;;;;;2.00;1.25;;;;;13.98;77.31;100844.41;4845850;29;45289;-74
2022/11/07 02:50:10;;;;;;;;;3.50;2.25;;;;;13.98;77.21;100834.56;4828241;29;47072;-74
2022/11/07 02:52:35;;;;;;;;;2.00;2.00;;;;;13.95;77.20;100826.63;4847058;29;45321;-75
2022/11/07 02:55:01;;;;;;;;;4.00;2.00;;;;;13.97;77.15;100827.44;4847335;29;45396;-74
2022/11/07 02:57:26;;;;;;;;;3.00;1.25;;;;;14.01;77.11;100828.16;4847035;29;45321;-74
2022/11/07 02:59:51;;;;;;;;;5.25;2.75;;;;;13.96;76.87;100812.25;4846213;29;45413;-74
2022/11/07 03:02:17;;;;;;;;;3.50;2.00;;;;;13.82;76.84;100795.94;4831607;29;45410;-74
2022/11/07 03:04:42;;;;;;;;;5.25;2.00;;;;;13.96;76.80;100812.25;4846900;29;45363;-75
2022/11/07 03:07:07;;;;;;;;;2.25;1.75;;;;;13.97;77.10;100819.38;4833706;29;45387;-74
2022/11/07 03:09:33;;;;;;;;;2.25;1.50;;;;;13.97;77.02;100814.00;4846295;29;46492;-74
2022/11/07 03:11:58;;;;;;;;;5.00;2.75;;;;;13.94;76.78;100807.91;4851331;29;45346;-75
2022/11/07 03:14:23;;;;;;;;;3.75;2.00;;;;;13.90;77.19;100810.72;4836711;29;45477;-75
2022/11/07 03:16:49;;;;;;;;;3.75;2.50;;;;;14.00;76.87;100826.41;4844904;29;45541;-74
2022/11/07 03:19:14;;;;;;;;;2.00;1.50;;;;;13.96;76.88;100825.69;4845977;29;49497;-74
2022/11/07 03:21:40;;;;;;;;;4.50;1.50;;;;;13.92;76.79;100820.53;4863496;29;45185;-74
2022/11/07 03:24:05;;;;;;;;;1.00;1.00;;;;;13.99;76.96;100835.41;4869036;29;45291;-74
2022/11/07 03:26:30;;;;;;;;;2.00;1.00;;;;;14.00;76.84;100840.72;4868647;29;45540;-74
2022/11/07 03:28:58;;;;;;;;;6.00;2.25;;;;;14.00;76.61;100835.34;4868153;29;52152;-74
2022/11/07 03:31:23;;;;;;;;;2.75;2.00;;;;;13.99;77.33;100836.28;4866125;29;45533;-74
2022/11/07 03:33:49;;;;;;;;;3.00;2.00;;;;;13.96;76.52;100831.03;4867517;29;45445;-74
2022/11/07 03:36:14;;;;;;;;;4.25;1.50;;;;;13.95;76.92;100840.06;4868383;29;45292;-75
2022/11/07 03:38:39;;;;;;;;;3.00;1.00;;;;;14.00;76.79;100855.94;4868643;29;46258;-74
2022/11/07 03:41:05;;;;;;;;;4.00;1.50;;;;;13.95;76.96;100844.53;4866868;29;45389;-74
2022/11/07 03:43:30;;;;;;;;;2.50;1.25;;;;;13.95;76.94;100837.38;4868843;29;45639;-74
2022/11/07 03:45:55;;;;;;;;;2.25;1.50;;;;;13.98;76.93;100845.28;4868222;29;45559;-74
2022/11/07 03:48:21;;;;;;;;;4.00;2.00;;;;;13.99;76.90;100838.97;4851618;29;48113;-74
2022/11/07 03:50:46;;;;;;;;;2.25;1.75;;;;;14.01;77.31;100836.22;4867442;29;45224;-74
2022/11/07 03:53:11;;;;;;;;;2.25;1.50;;;;;13.99;76.98;100838.97;4868291;29;45323;-74
2022/11/07 03:55:37;;;;;;;;;3.50;1.50;;;;;14.00;77.18;100831.78;4851284;29;51662;-74
2022/11/07 03:58:02;;;;;;;;;2.75;2.00;;;;;13.99;77.02;100822.00;4865676;29;45373;-74
2022/11/07 04:00:27;;;;;;;;;2.00;1.75;;;;;13.99;77.34;100824.69;4867139;29;45336;-74
2022/11/07 04:02:53;;;;;;;;;1.00;1.00;;;;;13.95;76.93;100812.31;4870366;29;45393;-75
2022/11/07 04:05:18;;;;;;;;;3.50;1.75;;;;;13.87;77.29;100812.69;4868175;29;45281;-74
2022/11/07 04:07:43;;;;;;;;;2.00;2.00;;;;;13.95;77.26;100823.06;4867895;29;45364;-74
2022/11/07 04:10:09;;;;;;;;;2.00;2.00;;;;;13.95;77.16;100815.91;4867050;29;45425;-75
2022/11/07 04:18:02;;;;;;;;;5.00;2.00;;;;;13.88;77.28;100814.41;4867221;29;45761;-75
2022/11/07 04:20:28;;;;;;;;;2.00;1.25;;;;;13.93;77.25;100820.44;4866992;29;45410;-74
2022/11/07 04:22:53;;;;;;;;;2.50;2.50;;;;;13.94;77.40;100807.91;4867966;29;45390;-75
2022/11/07 04:27:41;;;;;;;;;6.50;1.00;;;;;13.95;77.42;100809.63;4866910;29;45317;-74
2022/11/07 04:28:04;;;;;;;;;2.50;1.00;;;;;14.00;77.23;100810.31;4866613;29;45351;-74
2022/11/07 04:30:29;;;;;;;;;2.75;1.00;;;;;13.99;77.08;100825.53;4866661;29;45590;-74
2022/11/07 04:32:58;;;;;;;;;2.25;1.00;;;;;13.96;76.76;100814.09;4867370;29;45297;-74
2022/11/07 04:35:27;;;;;;;;;4.50;2.00;;;;;14.06;77.32;100834.19;4867639;29;45467;-74
2022/11/07 04:37:53;;;;;;;;;5.50;3.00;;;;;14.07;77.00;100831.44;4866527;29;45729;-74
2022/11/07 04:40:19;;;;;;;;;2.00;2.00;;;;;14.04;76.99;100825.34;4866160;29;45264;-74
2022/11/07 04:42:45;;;;;;;;;4.00;2.00;;;;;14.05;77.17;100836.00;4850362;29;45278;-75
2022/11/07 04:45:11;;;;;;;;;3.00;1.00;;;;;14.08;77.47;100838.56;4867680;29;45385;-74
2022/11/07 04:47:38;;;;;;;;;5.00;2.25;;;;;14.03;77.13;100829.84;4866816;29;45324;-75
2022/11/07 04:50:05;;;;;;;;;6.50;3.00;;;;;14.07;77.33;100842.16;4849821;29;45574;-74
2022/11/07 04:52:30;;;;;;;;;4.00;2.00;;;;;14.03;77.06;100837.91;4850923;29;45356;-74
2022/11/07 04:54:56;;;;;;;;;2.00;2.00;;;;;14.04;76.88;100830.72;4867523;29;45372;-74
2022/11/07 04:57:21;;;;;;;;;2.75;1.50;;;;;14.08;77.30;100841.25;4865951;29;45970;-74
2022/11/07 04:59:46;;;;;;;;;2.00;2.00;;;;;14.07;77.40;100836.81;4849193;29;46336;-74
2022/11/07 05:02:12;;;;;;;;;4.50;3.00;;;;;14.04;77.04;100828.88;4869329;29;45549;-74
2022/11/07 05:04:38;;;;;;;;;1.75;1.50;;;;;14.08;77.29;100833.19;4843389;29;45340;-74
2022/11/07 05:07:04;;;;;;;;;4.50;2.00;;;;;14.03;77.12;100815.53;4866893;29;45360;-75
2022/11/07 05:09:29;;;;;;;;;5.00;2.00;;;;;14.00;77.20;100818.34;4866623;29;45308;-74
2022/11/07 05:11:55;;;;;;;;;2.00;2.00;;;;;14.09;77.49;100826.00;4867152;29;45471;-75
2022/11/07 05:14:21;;;;;;;;;3.50;3.50;;;;;14.13;77.35;100829.41;4857151;29;45224;-74
2022/11/07 05:16:46;;;;;;;;;2.00;1.75;;;;;14.10;77.14;100817.03;4864220;29;45319;-75
2022/11/07 05:19:15;;;;;;;;;4.00;2.25;;;;;14.12;77.42;100816.94;4866862;29;45335;-74
2022/11/07 05:21:41;;;;;;;;;2.00;2.00;;;;;14.05;77.04;100805.63;4849715;29;45386;-75
2022/11/07 05:24:06;;;;;;;;;5.75;3.00;;;;;14.09;77.18;100808.06;4867247;29;45487;-74
2022/11/07 05:26:31;;;;;;;;;2.50;2.25;;;;;14.12;77.24;100825.88;4849312;29;46835;-74
2022/11/07 05:28:57;;;;;;;;;4.25;2.00;;;;;14.11;77.27;100816.06;4850452;29;45743;-74
2022/11/07 05:31:22;;;;;;;;;3.25;1.50;;;;;14.05;77.42;100819.91;4866432;29;45331;-75
2022/11/07 05:33:47;;;;;;;;;2.50;2.00;;;;;14.07;77.50;100828.75;4866834;29;45371;-75
2022/11/07 05:36:15;;;;;;;;;1.75;1.00;;;;;14.08;77.70;100826.94;4850103;29;47364;-75
2022/11/07 05:38:43;;;;;;;;;3.25;3.00;;;;;14.08;77.67;100825.13;4866798;29;46223;-74
2022/11/07 05:41:08;;;;;;;;;2.25;2.00;;;;;14.11;77.57;100837.53;4866170;29;45254;-75
2022/11/07 05:43:35;;;;;;;;;1.75;0.25;;;;;14.13;77.74;100843.69;4866194;29;45400;-75
2022/11/07 05:46:00;;;;;;;;;5.00;2.00;;;;;14.13;77.47;100837.47;4866391;29;46551;-74
2022/11/07 05:48:26;;;;;;;;;2.25;1.75;;;;;14.17;77.75;100855.19;4866120;29;45367;-75
2022/11/07 05:50:52;;;;;;;;;2.00;2.00;;;;;14.06;77.83;100831.50;4865784;29;45422;-75
2022/11/07 05:53:20;;;;;;;;;1.00;0.50;;;;;14.18;77.52;100852.44;4866723;29;45457;-75
2022/11/07 05:55:46;;;;;;;;;3.00;1.00;;;;;14.14;77.48;100853.50;4866119;29;47390;-74
2022/11/07 05:58:12;;;;;;;;;2.00;2.00;;;;;14.07;77.76;100838.63;4866222;29;45344;-74
2022/11/07 06:00:38;;;;;;;;;1.00;1.00;;;;;14.15;77.60;100844.53;4865375;29;45360;-74
2022/11/07 06:03:04;;;;;;;;;2.75;1.75;;;;;14.20;77.59;100855.03;4868430;29;45289;-74
2022/11/07 06:05:29;;;;;;;;;2.50;2.00;;;;;14.22;77.34;100853.16;4854111;29;45238;-74
2022/11/07 06:07:55;;;;;;;;;3.50;1.50;;;;;14.18;77.76;100844.38;4865900;29;45672;-74
2022/11/07 06:10:21;;;;;;;;;4.75;2.00;;;;;14.22;77.24;100853.16;4852379;29;45339;-75
2022/11/07 06:12:46;;;;;;;;;2.75;1.00;;;;;14.18;77.14;100848.84;4869961;29;45341;-74
2022/11/07 06:15:12;;;;;;;;;3.00;2.00;;;;;14.25;77.19;100853.88;4851544;29;46107;-75
2022/11/07 06:17:37;;;;;;;;;1.00;1.00;;;;;14.25;77.23;100856.56;4866195;29;45342;-74
2022/11/07 06:20:03;;;;;;;;;4.25;2.00;;;;;14.22;77.38;100863.91;4862453;29;45337;-74
2022/11/07 06:22:29;;;;;;;;;2.00;2.00;;;;;14.22;77.53;100853.16;4847797;29;45464;-74
2022/11/07 06:24:55;;;;;;;;;4.00;2.00;;;;;14.26;77.13;100852.06;4846588;29;45614;-74
2022/11/07 06:27:20;;;;;;;;;3.00;3.00;;;;;14.29;77.21;100862.66;4846493;29;45283;-75
2022/11/07 06:29:45;;;;;;;;;2.00;1.00;;;;;14.22;77.00;100862.09;4846383;29;45329;-74
2022/11/07 06:32:11;;;;;;;;;1.75;1.00;;;;;14.32;77.25;100878.66;4842310;29;45411;-74
2022/11/07 06:34:36;;;;;;;;;2.50;2.00;;;;;14.33;77.57;100879.50;4831956;29;46705;-74
2022/11/07 06:37:02;;;;;;;;;2.25;2.00;;;;;14.24;77.23;100878.97;4842065;29;45409;-76
2022/11/07 06:39:27;;;;;;;;;3.50;2.75;;;;;14.34;77.41;100889.31;4838554;29;46777;-75
2022/11/07 06:41:52;;;;;;;;;1.00;1.00;;;;;14.34;77.31;100884.81;4847324;29;45261;-74
2022/11/07 06:44:18;;;;;;;;;2.25;1.25;;;;;14.36;77.35;100882.06;4847074;29;45939;-75
2022/11/07 06:46:45;;;;;;;;;2.25;2.00;;;;;14.38;77.37;100893.59;4846008;29;45344;-75
2022/11/07 06:49:12;;;;;;;;;4.00;1.25;;;;;14.32;77.38;100870.59;4847125;29;45424;-74
2022/11/07 06:51:37;;;;;;;;;3.75;2.00;;;;;14.41;77.17;100885.41;4846390;29;45241;-75
2022/11/07 06:54:03;;;;;;;;;3.00;1.00;;;;;14.36;77.36;100874.00;4847141;29;46010;-75
2022/11/07 06:56:28;;;;;;;;;1.00;1.00;;;;;14.44;76.89;100886.13;4845426;29;45517;-76
2022/11/07 06:58:53;;;;;;;;;4.75;3.00;;;;;14.44;77.12;100894.19;4844238;29;45423;-75
2022/11/07 07:01:19;;;;;;;;;4.00;2.00;;;;;14.45;77.54;100893.25;4846788;29;45359;-75
2022/11/07 07:03:44;;;;;;;;;4.00;3.00;;;;;14.41;77.13;100888.94;4832477;29;53298;-75
2022/11/07 07:06:13;;;;;;;;;5.00;2.75;;;;;14.42;77.35;100888.03;4830970;29;45512;-76
2022/11/07 07:08:38;;;;;;;;;5.50;2.00;;;;;14.49;77.11;100895.81;4846729;29;45363;-75
2022/11/07 07:11:09;;;;;;;;;1.25;1.25;;;;;14.46;77.40;100888.75;4847031;29;45298;-75
2022/11/07 07:13:35;;;;;;;;;4.00;2.25;;;;;14.46;77.44;100892.28;4844573;29;45537;-75
2022/11/07 07:16:01;;;;;;;;;5.75;4.00;;;;;14.50;77.26;100895.72;4842512;29;45347;-76
2022/11/07 07:18:27;;;;;;;;;5.00;2.00;;;;;14.56;77.18;100905.31;4845573;29;45272;-75
2022/11/07 07:21:07;;;;;;;;;4.00;2.00;;;;;14.55;77.23;100900.88;4854520;29;45271;-75
2022/11/07 07:23:33;;;;;;;;;4.50;2.00;;;;;14.51;77.15;100894.78;4854062;29;46563;-75
2022/11/07 07:26:04;;;;;;;;;4.00;2.00;;;;;14.58;77.29;100911.47;4861668;29;45402;-76
2022/11/07 07:28:29;;;;;;;;;4.50;1.50;;;;;14.59;77.13;100915.94;4864438;29;45349;-76
2022/11/07 07:31:13;;;;;;;;;2.25;1.25;;;;;14.60;77.15;100917.69;4862826;29;45418;-76
2022/11/07 07:33:42;;;;;;;;;2.75;2.75;;;;;14.51;76.88;100896.59;4863805;29;47665;-76
2022/11/07 07:36:08;;;;;;;;;5.75;5.00;;;;;14.56;77.12;100903.50;4863949;29;45446;-76
2022/11/07 07:38:33;;;;;;;;;3.50;2.50;;;;;14.60;77.07;100915.00;4864052;29;45392;-76
2022/11/07 07:40:59;;;;;;;;;2.00;1.00;;;;;14.60;76.95;100898.88;4864031;29;45335;-75
2022/11/07 07:43:27;;;;;;;;;3.00;2.50;;;;;14.63;77.17;100910.38;4865068;29;45439;-76
2022/11/07 07:45:52;;;;;;;;;6.00;2.25;;;;;14.64;77.16;100913.91;4857706;29;45459;-77
2022/11/07 07:48:18;;;;;;;;;5.00;4.50;;;;;14.56;77.27;100906.16;4859642;29;45903;-76
2022/11/07 07:50:47;;;;;;;;;4.25;3.00;;;;;14.59;77.25;100900.69;4861705;29;45491;-75
2022/11/07 07:53:12;;;;;;;;;4.00;2.25;;;;;14.63;77.21;100899.63;4859059;29;45555;-75
2022/11/07 07:55:38;;;;;;;;;3.00;3.00;;;;;14.59;77.15;100906.06;4865277;29;45319;-76
2022/11/07 07:58:03;;;;;;;;;2.75;2.00;;;;;14.64;77.50;100905.88;4858070;29;45770;-76
2022/11/07 08:00:29;;;;;;;;;4.25;3.00;;;;;14.61;77.57;100896.13;4847250;29;47780;-76
2022/11/07 08:03:07;;;;;;;;;4.00;2.50;;;;;14.69;77.63;100909.19;4869691;29;45836;-76
2022/11/07 08:05:33;;;;;;;;;2.00;2.00;;;;;14.63;77.02;100902.31;4863804;29;45404;-76
2022/11/07 08:07:59;;;;;;;;;2.75;2.00;;;;;14.70;77.39;100912.75;4861191;29;46005;-76
2022/11/07 08:10:24;;;;;;;;;3.25;1.50;;;;;14.61;77.30;100903.31;4867065;29;45302;-75
2022/11/07 08:12:50;;;;;;;;;2.75;2.00;;;;;14.74;77.42;100920.59;4866027;29;45401;-76
2022/11/07 08:15:17;;;;;;;;;3.00;2.00;;;;;14.80;77.39;100932.88;4850578;29;45844;-76
2022/11/07 08:17:43;;;;;;;;;4.75;2.00;;;;;14.77;77.40;100930.34;4865915;29;45348;-76
2022/11/07 08:20:11;;;;;;;;;4.00;4.00;;;;;14.81;77.32;100942.69;4864148;29;45467;-74
2022/11/07 08:22:37;;;;;;;;;4.00;2.25;;;;;14.81;77.54;100948.06;4863090;29;46016;-76
2022/11/07 08:25:04;;;;;;;;;4.75;2.50;;;;;14.84;77.36;100949.75;4862972;29;45567;-76
2022/11/07 08:27:30;;;;;;;;;4.50;1.50;;;;;14.85;77.61;100956.84;4867385;29;45293;-75
2022/11/07 08:29:56;;;;;;;;;2.00;2.00;;;;;14.79;77.46;100939.19;4865613;29;45368;-74
2022/11/07 08:32:22;;;;;;;;;2.00;2.00;;;;;14.76;77.72;100940.19;4865793;29;46383;-74
2022/11/07 08:34:47;;;;;;;;;5.25;2.50;;;;;14.88;77.29;100954.03;4864439;29;45306;-74
2022/11/07 08:37:12;;;;;;;;;3.00;1.00;;;;;14.89;77.76;100945.03;4874854;29;45347;-74
2022/11/07 08:39:38;;;;;;;;;2.50;2.00;;;;;14.91;77.60;100945.81;4875360;29;45454;-75
2022/11/07 08:42:03;;;;;;;;;1.75;1.75;;;;;14.91;77.58;100940.44;4865988;29;45468;-74
2022/11/07 08:44:31;;;;;;;;;4.25;2.75;;;;;14.94;77.41;100938.47;4867940;29;45423;-74
2022/11/07 08:46:57;;;;;;;;;3.25;3.25;;;;;14.97;77.39;100957.16;4866733;29;45297;-74
2022/11/07 08:49:22;;;;;;;;;4.00;1.75;;;;;14.96;77.13;100943.78;4867079;29;45477;-75
2022/11/07 08:51:47;;;;;;;;;4.50;1.75;;;;;15.01;77.12;100945.28;4869271;29;49153;-74
2022/11/07 08:54:13;;;;;;;;;4.25;1.75;;;;;15.04;77.21;100951.50;4868261;29;45274;-76
2022/11/07 08:56:38;;;;;;;;;1.50;1.50;;;;;15.01;77.17;100947.13;4869000;29;45386;-76
2022/11/07 08:59:03;;;;;;;;;4.75;1.00;;;;;15.05;77.32;100948.72;4867790;29;45315;-74
2022/11/07 09:01:29;;;;;;;;;3.00;2.00;;;;;15.09;77.29;100946.75;4865072;29;46286;-74
2022/11/07 09:03:54;;;;;;;;;2.75;1.00;;;;;15.08;77.16;100945.00;4863449;29;45428;-74
2022/11/07 09:06:20;;;;;;;;;1.00;1.00;;;;;15.12;77.22;100952.88;4863919;29;45443;-74
2022/11/07 09:08:45;;;;;;;;;3.00;1.75;;;;;15.12;76.93;100962.75;4865029;29;45387;-74
2022/11/07 09:11:14;;;;;;;;;2.75;1.00;;;;;15.18;77.19;100974.09;4871364;29;46059;-74
2022/11/07 09:13:39;;;;;;;;;2.00;1.00;;;;;15.21;76.94;100964.13;4868152;29;45551;-75
2022/11/07 09:16:05;;;;;;;;;2.00;2.00;;;;;15.23;77.05;100973.84;4866365;29;45436;-74
2022/11/07 09:18:31;;;;;;;;;4.50;3.00;;;;;15.24;76.74;100982.81;4859680;29;45314;-74
2022/11/07 09:20:57;;;;;;;;;5.00;2.00;;;;;15.25;76.90;100969.28;4874645;29;45392;-74
2022/11/07 09:23:22;;;;;;;;;2.00;1.75;;;;;15.25;76.82;100968.38;4841040;29;45361;-76
2022/11/07 09:25:48;;;;;;;;;2.00;2.00;;;;;15.12;76.95;100946.63;4855784;29;45332;-76
2022/11/07 09:28:13;;;;;;;;;3.50;3.00;;;;;15.23;76.98;100968.47;4845162;29;45449;-75
2022/11/07 09:30:39;;;;;;;;;3.00;3.00;;;;;15.28;76.67;100960.19;4849527;29;45392;-75
2022/11/07 09:33:04;;;;;;;;;2.00;1.75;;;;;15.21;76.57;100950.69;4862491;29;45367;-75
2022/11/07 09:35:30;;;;;;;;;3.00;2.00;;;;;15.28;76.78;100961.03;4853553;29;45668;-76
2022/11/07 09:37:55;;;;;;;;;2.00;2.00;;;;;15.25;76.92;100963.91;4847741;29;45330;-76
2022/11/07 09:40:39;;;;;;;;;2.25;2.00;;;;;15.35;76.81;100948.16;4829720;29;48054;-76
2022/11/07 09:43:42;;;;;;;;;2.00;1.00;;;;;15.38;76.91;100956.09;4840535;29;45294;-76
2022/11/07 09:46:13;;;;;;;;;3.50;2.25;;;;;15.40;76.83;100956.88;4828398;29;45652;-75
2022/11/07 09:48:52;;;;;;;;;3.00;1.50;;;;;15.35;76.81;100950.84;4830388;29;45356;-76
2022/11/07 09:51:31;;;;;;;;;1.00;1.00;;;;;15.28;76.95;100936.84;4818903;29;47706;-75
2022/11/07 09:54:02;;;;;;;;;2.50;2.00;;;;;15.46;76.84;100955.72;4846412;29;45343;-76
2022/11/07 09:56:30;;;;;;;;;3.75;1.50;;;;;15.42;76.57;100954.13;4846516;29;45347;-76
2022/11/07 09:59:00;;;;;;;;;2.25;2.00;;;;;15.48;76.68;100967.28;4834120;29;45365;-76
2022/11/07 10:01:29;;;;;;;;;2.75;1.25;;;;;15.50;76.52;100965.38;4849175;29;45403;-76
2022/11/07 10:03:54;;;;;;;;;3.50;2.50;;;;;15.45;76.59;100957.56;4845726;29;45398;-76
2022/11/07 10:06:27;;;;;;;;;2.75;1.00;;;;;15.38;76.67;100948.91;4842384;29;45304;-77
2022/11/07 10:09:21;;;;;;;;;2.00;0.00;;;;;15.49;76.33;100960.97;4839258;29;45432;-77
2022/11/07 10:12:05;;;;;;;;;6.50;3.25;;;;;15.51;76.43;100975.19;4850748;29;45525;-77
2022/11/07 10:14:39;;;;;;;;;5.50;2.25;;;;;15.54;76.25;100975.06;4845687;29;45387;-76
2022/11/07 10:17:34;;;;;;;;;2.00;1.00;;;;;15.52;76.19;100961.69;4837165;29;45373;-77
2022/11/07 10:20:23;;;;;;;;;3.00;2.50;;;;;15.58;76.44;100971.25;4846154;29;45380;-77
2022/11/07 10:23:10;;;;;;;;;4.00;3.00;;;;;15.60;76.24;100958.59;4858060;29;45599;-77
2022/11/07 10:25:47;;;;;;;;;4.00;2.00;;;;;15.63;76.57;100961.13;4865650;29;45549;-77
2022/11/07 10:28:18;;;;;;;;;3.00;2.50;;;;;15.64;76.55;100943.19;4864683;29;45753;-77
2022/11/07 10:30:48;;;;;;;;;3.00;3.00;;;;;15.68;76.48;100939.38;4861934;29;46399;-76
2022/11/07 10:33:30;;;;;;;;;2.75;1.75;;;;;15.72;76.20;100946.34;4862764;29;46342;-77
2022/11/07 10:36:19;;;;;;;;;3.50;1.75;;;;;15.72;76.08;100944.53;4864341;29;45963;-76
2022/11/07 10:38:44;;;;;;;;;2.00;2.00;;;;;15.76;76.33;100945.28;4846363;29;45520;-77
2022/11/07 10:41:16;;;;;;;;;6.00;5.00;;;;;15.68;75.97;100929.47;4844568;29;45686;-76
2022/11/07 10:43:45;;;;;;;;;4.25;2.00;;;;;15.85;75.89;100947.47;4864214;29;45506;-77
2022/11/07 10:46:26;;;;;;;;;5.00;2.75;;;;;15.85;75.72;100939.41;4843543;29;45478;-76
2022/11/07 10:48:57;;;;;;;;;2.25;2.00;;;;;15.90;75.67;100940.06;4857309;29;45535;-77
2022/11/07 10:51:37;;;;;;;;;6.25;3.25;;;;;15.91;75.60;100941.78;4865154;29;45637;-76
2022/11/07 10:54:05;;;;;;;;;3.50;2.00;;;;;15.98;75.55;100942.34;4866074;29;45452;-76
2022/11/07 10:56:43;;;;;;;;;4.00;3.00;;;;;15.97;75.46;100953.19;4845559;29;45673;-77
2022/11/07 10:59:13;;;;;;;;;3.50;3.00;;;;;16.00;75.19;100956.59;4864654;29;45288;-76
2022/11/07 11:01:39;;;;;;;;;1.00;1.00;;;;;16.03;75.15;100948.34;4864551;29;45369;-76
2022/11/07 11:04:04;;;;;;;;;5.00;2.00;;;;;15.93;74.96;100929.13;4862854;29;46986;-77
2022/11/07 11:06:30;;;;;;;;;3.00;2.00;;;;;16.06;75.09;100950.91;4863941;29;45466;-81
2022/11/07 11:08:56;;;;;;;;;1.50;1.50;;;;;16.07;75.16;100947.25;4863926;29;46521;-80
2022/11/07 11:11:31;;;;;;;;;3.50;2.25;;;;;16.04;74.79;100935.78;4864066;29;45351;-81
2022/11/07 11:14:19;;;;;;;;;3.75;2.50;;;;;16.09;74.92;100950.75;4848912;29;47029;-81
2022/11/07 11:16:47;;;;;;;;;2.75;2.75;;;;;16.07;74.87;100932.91;4859653;29;45509;-81
2022/11/07 11:19:21;;;;;;;;;2.00;1.00;;;;;16.10;74.99;100932.75;4865277;29;45438;-80
2022/11/07 11:21:49;;;;;;;;;2.75;2.00;;;;;16.11;75.00;100937.19;4849217;29;45487;-81
2022/11/07 11:24:28;;;;;;;;;2.25;2.25;;;;;16.12;74.80;100928.16;4846255;29;46417;-81
2022/11/07 11:26:59;;;;;;;;;4.75;3.00;;;;;16.14;74.79;100925.38;4835525;29;45803;-80
2022/11/07 11:30:07;;;;;;;;;2.00;2.00;;;;;16.16;74.46;100931.56;4844070;29;45338;-77
2022/11/07 11:33:04;;;;;;;;;4.00;1.00;;;;;16.19;74.33;100936.78;4839823;29;45446;-80
2022/11/07 11:35:45;;;;;;;;;2.50;2.00;;;;;16.18;74.32;100941.31;4836810;29;46137;-81